sensor_id;sensor_type;location;lat;lon;timestamp;P1;durP1;ratioP1;P2;durP2;ratioP2
43509;SDS011;29105;57.764;40.952;2023-02-27T00:01:28;10.35;;;5.63;;
43509;SDS011;29105;57.764;40.952;2023-02-27T00:03:55;13.35;;;6.15;;
43509;SDS011;29105;57.764;40.952;2023-02-27T00:06:21;12.07;;;4.90;;
43509;SDS011;29105;57.764;40.952;2023-02-27T00:08:47;13.95;;;5.55;;
43509;SDS011;29105;57.764;40.952;2023-02-27T00:11:13;16.95;;;9.32;;
43509;SDS011;29105;57.764;40.952;2023-02-27T00:13:39;11.18;;;6.30;;
43509;SDS011;29105;57.764;40.952;2023-02-27T00:16:05;7.72;;;4.22;;
43509;SDS011;29105;57.764;40.952;2023-02-27T00:18:31;12.68;;;5.82;;
43509;SDS011;29105;57.764;40.952;2023-02-27T00:20:57;7.10;;;4.68;;
43509;SDS011;29105;57.764;40.952;2023-02-27T00:23:22;14.13;;;5.80;;
43509;SDS011;29105;57.764;40.952;2023-02-27T00:25:48;8.88;;;4.22;;
43509;SDS011;29105;57.764;40.952;2023-02-27T00:28:14;7.32;;;4.43;;
43509;SDS011;29105;57.764;40.952;2023-02-27T00:30:40;13.70;;;7.07;;
43509;SDS011;29105;57.764;40.952;2023-02-27T00:33:05;10.55;;;5.28;;
43509;SDS011;29105;57.764;40.952;2023-02-27T00:35:31;9.10;;;4.70;;
43509;SDS011;29105;57.764;40.952;2023-02-27T00:37:57;13.38;;;6.47;;
43509;SDS011;29105;57.764;40.952;2023-02-27T00:40:22;16.30;;;8.23;;
43509;SDS011;29105;57.764;40.952;2023-02-27T00:42:50;13.20;;;7.47;;
43509;SDS011;29105;57.764;40.952;2023-02-27T00:45:16;11.00;;;4.78;;
43509;SDS011;29105;57.764;40.952;2023-02-27T00:47:41;10.00;;;4.38;;
43509;SDS011;29105;57.764;40.952;2023-02-27T00:50:07;11.63;;;4.97;;
43509;SDS011;29105;57.764;40.952;2023-02-27T00:52:33;13.80;;;6.70;;
43509;SDS011;29105;57.764;40.952;2023-02-27T00:54:59;14.50;;;7.18;;
43509;SDS011;29105;57.764;40.952;2023-02-27T00:57:25;9.13;;;3.90;;
43509;SDS011;29105;57.764;40.952;2023-02-27T00:59:51;13.07;;;6.43;;
43509;SDS011;29105;57.764;40.952;2023-02-27T01:02:16;13.75;;;6.30;;
43509;SDS011;29105;57.764;40.952;2023-02-27T01:04:42;12.98;;;6.20;;
43509;SDS011;29105;57.764;40.952;2023-02-27T01:07:08;14.65;;;6.68;;
43509;SDS011;29105;57.764;40.952;2023-02-27T01:09:34;12.50;;;5.85;;
43509;SDS011;29105;57.764;40.952;2023-02-27T01:12:00;18.13;;;8.52;;
43509;SDS011;29105;57.764;40.952;2023-02-27T01:14:26;11.90;;;6.00;;
43509;SDS011;29105;57.764;40.952;2023-02-27T01:16:52;13.38;;;7.28;;
43509;SDS011;29105;57.764;40.952;2023-02-27T01:19:17;11.40;;;5.80;;
43509;SDS011;29105;57.764;40.952;2023-02-27T01:21:43;7.60;;;5.18;;
43509;SDS011;29105;57.764;40.952;2023-02-27T01:24:09;15.10;;;6.70;;
43509;SDS011;29105;57.764;40.952;2023-02-27T01:26:34;13.70;;;5.97;;
43509;SDS011;29105;57.764;40.952;2023-02-27T01:29:00;8.70;;;4.57;;
43509;SDS011;29105;57.764;40.952;2023-02-27T01:31:26;10.73;;;5.05;;
43509;SDS011;29105;57.764;40.952;2023-02-27T01:33:51;14.38;;;6.93;;
43509;SDS011;29105;57.764;40.952;2023-02-27T01:36:17;12.43;;;5.80;;
43509;SDS011;29105;57.764;40.952;2023-02-27T01:38:43;16.05;;;7.93;;
43509;SDS011;29105;57.764;40.952;2023-02-27T01:41:08;10.93;;;5.85;;
43509;SDS011;29105;57.764;40.952;2023-02-27T01:43:51;13.70;;;8.25;;
43509;SDS011;29105;57.764;40.952;2023-02-27T01:46:22;11.48;;;5.28;;
43509;SDS011;29105;57.764;40.952;2023-02-27T01:48:48;11.90;;;5.00;;
43509;SDS011;29105;57.764;40.952;2023-02-27T01:51:16;9.93;;;5.13;;
43509;SDS011;29105;57.764;40.952;2023-02-27T01:53:44;10.23;;;5.72;;
43509;SDS011;29105;57.764;40.952;2023-02-27T01:56:21;9.20;;;4.97;;
43509;SDS011;29105;57.764;40.952;2023-02-27T01:58:48;12.10;;;6.18;;
43509;SDS011;29105;57.764;40.952;2023-02-27T02:01:14;16.38;;;9.93;;
43509;SDS011;29105;57.764;40.952;2023-02-27T02:06:44;15.15;;;8.13;;
43509;SDS011;29105;57.764;40.952;2023-02-27T02:09:12;10.30;;;6.10;;
43509;SDS011;29105;57.764;40.952;2023-02-27T02:11:40;13.48;;;7.35;;
43509;SDS011;29105;57.764;40.952;2023-02-27T02:14:06;9.20;;;5.07;;
43509;SDS011;29105;57.764;40.952;2023-02-27T02:29:53;11.68;;;6.18;;
43509;SDS011;29105;57.764;40.952;2023-02-27T02:35:57;13.32;;;6.53;;
43509;SDS011;29105;57.764;40.952;2023-02-27T02:49:41;13.18;;;7.68;;
43509;SDS011;29105;57.764;40.952;2023-02-27T02:55:26;5.60;;;2.97;;
43509;SDS011;29105;57.764;40.952;2023-02-27T02:58:07;7.80;;;3.17;;
43509;SDS011;29105;57.764;40.952;2023-02-27T03:00:39;8.70;;;3.40;;
43509;SDS011;29105;57.764;40.952;2023-02-27T03:03:42;4.38;;;2.92;;
43509;SDS011;29105;57.764;40.952;2023-02-27T03:06:02;9.07;;;4.15;;
43509;SDS011;29105;57.764;40.952;2023-02-27T03:08:34;12.27;;;3.28;;
43509;SDS011;29105;57.764;40.952;2023-02-27T03:11:02;12.13;;;4.45;;
43509;SDS011;29105;57.764;40.952;2023-02-27T03:16:09;3.83;;;2.95;;
43509;SDS011;29105;57.764;40.952;2023-02-27T03:18:39;5.20;;;2.95;;
43509;SDS011;29105;57.764;40.952;2023-02-27T03:21:09;8.38;;;5.38;;
43509;SDS011;29105;57.764;40.952;2023-02-27T03:23:47;4.93;;;2.92;;
43509;SDS011;29105;57.764;40.952;2023-02-27T03:26:19;6.70;;;3.13;;
43509;SDS011;29105;57.764;40.952;2023-02-27T03:28:53;6.45;;;3.97;;
43509;SDS011;29105;57.764;40.952;2023-02-27T03:32:06;9.50;;;4.47;;
43509;SDS011;29105;57.764;40.952;2023-02-27T03:34:36;4.97;;;3.20;;
43509;SDS011;29105;57.764;40.952;2023-02-27T03:42:40;5.18;;;2.65;;
43509;SDS011;29105;57.764;40.952;2023-02-27T03:47:48;6.53;;;2.88;;
43509;SDS011;29105;57.764;40.952;2023-02-27T03:50:14;7.80;;;3.83;;
43509;SDS011;29105;57.764;40.952;2023-02-27T03:52:40;5.72;;;2.65;;
43509;SDS011;29105;57.764;40.952;2023-02-27T03:55:23;2.97;;;1.75;;
43509;SDS011;29105;57.764;40.952;2023-02-27T03:57:51;7.93;;;3.00;;
43509;SDS011;29105;57.764;40.952;2023-02-27T04:00:21;5.25;;;3.08;;
43509;SDS011;29105;57.764;40.952;2023-02-27T04:02:49;8.65;;;4.13;;
43509;SDS011;29105;57.764;40.952;2023-02-27T04:05:16;8.00;;;3.80;;
43509;SDS011;29105;57.764;40.952;2023-02-27T04:21:17;7.25;;;4.40;;
43509;SDS011;29105;57.764;40.952;2023-02-27T04:23:57;6.35;;;3.67;;
43509;SDS011;29105;57.764;40.952;2023-02-27T04:29:36;8.23;;;3.83;;
43509;SDS011;29105;57.764;40.952;2023-02-27T04:32:15;5.65;;;3.10;;
43509;SDS011;29105;57.764;40.952;2023-02-27T04:34:49;7.18;;;4.25;;
43509;SDS011;29105;57.764;40.952;2023-02-27T04:40:04;8.25;;;3.95;;
43509;SDS011;29105;57.764;40.952;2023-02-27T04:42:34;7.18;;;3.70;;
43509;SDS011;29105;57.764;40.952;2023-02-27T04:45:05;6.10;;;3.13;;
43509;SDS011;29105;57.764;40.952;2023-02-27T04:47:34;8.68;;;4.88;;
43509;SDS011;29105;57.764;40.952;2023-02-27T04:50:13;8.60;;;3.75;;
43509;SDS011;29105;57.764;40.952;2023-02-27T04:52:45;6.60;;;4.43;;
43509;SDS011;29105;57.764;40.952;2023-02-27T04:55:34;9.25;;;4.72;;
43509;SDS011;29105;57.764;40.952;2023-02-27T04:58:09;9.40;;;4.68;;
43509;SDS011;29105;57.764;40.952;2023-02-27T05:00:39;6.07;;;4.03;;
43509;SDS011;29105;57.764;40.952;2023-02-27T05:03:08;8.88;;;4.43;;
43509;SDS011;29105;57.764;40.952;2023-02-27T05:05:37;9.17;;;4.10;;
43509;SDS011;29105;57.764;40.952;2023-02-27T05:08:06;5.57;;;3.15;;
43509;SDS011;29105;57.764;40.952;2023-02-27T05:10:51;8.23;;;4.22;;
43509;SDS011;29105;57.764;40.952;2023-02-27T05:13:23;12.70;;;5.25;;
43509;SDS011;29105;57.764;40.952;2023-02-27T05:15:57;11.40;;;4.55;;
43509;SDS011;29105;57.764;40.952;2023-02-27T05:18:25;8.80;;;4.60;;
43509;SDS011;29105;57.764;40.952;2023-02-27T05:21:04;13.40;;;6.07;;
43509;SDS011;29105;57.764;40.952;2023-02-27T05:29:29;9.55;;;5.18;;
43509;SDS011;29105;57.764;40.952;2023-02-27T05:37:14;16.00;;;7.78;;
43509;SDS011;29105;57.764;40.952;2023-02-27T05:39:43;14.90;;;7.68;;
43509;SDS011;29105;57.764;40.952;2023-02-27T05:42:11;17.33;;;8.10;;
43509;SDS011;29105;57.764;40.952;2023-02-27T05:44:43;14.60;;;6.25;;
43509;SDS011;29105;57.764;40.952;2023-02-27T05:47:19;18.08;;;8.98;;
43509;SDS011;29105;57.764;40.952;2023-02-27T05:52:17;16.17;;;7.07;;
43509;SDS011;29105;57.764;40.952;2023-02-27T05:54:50;15.43;;;8.07;;
43509;SDS011;29105;57.764;40.952;2023-02-27T05:57:28;11.80;;;6.55;;
43509;SDS011;29105;57.764;40.952;2023-02-27T06:02:25;12.50;;;7.05;;
43509;SDS011;29105;57.764;40.952;2023-02-27T06:04:50;14.20;;;6.55;;
43509;SDS011;29105;57.764;40.952;2023-02-27T06:07:16;13.57;;;7.07;;
43509;SDS011;29105;57.764;40.952;2023-02-27T06:09:43;16.02;;;8.23;;
43509;SDS011;29105;57.764;40.952;2023-02-27T06:12:08;7.68;;;3.47;;
43509;SDS011;29105;57.764;40.952;2023-02-27T06:14:34;14.10;;;8.63;;
43509;SDS011;29105;57.764;40.952;2023-02-27T06:17:00;14.52;;;8.02;;
43509;SDS011;29105;57.764;40.952;2023-02-27T06:19:25;16.40;;;7.93;;
43509;SDS011;29105;57.764;40.952;2023-02-27T06:21:51;18.25;;;9.05;;
43509;SDS011;29105;57.764;40.952;2023-02-27T06:24:17;16.95;;;8.57;;
43509;SDS011;29105;57.764;40.952;2023-02-27T06:26:42;11.50;;;6.25;;
43509;SDS011;29105;57.764;40.952;2023-02-27T06:29:08;13.85;;;6.68;;
43509;SDS011;29105;57.764;40.952;2023-02-27T06:31:34;14.88;;;6.97;;
43509;SDS011;29105;57.764;40.952;2023-02-27T06:33:59;16.55;;;8.65;;
43509;SDS011;29105;57.764;40.952;2023-02-27T06:36:25;16.80;;;8.32;;
43509;SDS011;29105;57.764;40.952;2023-02-27T06:38:53;13.32;;;8.15;;
43509;SDS011;29105;57.764;40.952;2023-02-27T06:41:18;15.55;;;7.82;;
43509;SDS011;29105;57.764;40.952;2023-02-27T06:43:44;14.18;;;7.32;;
43509;SDS011;29105;57.764;40.952;2023-02-27T06:46:10;18.15;;;9.27;;
43509;SDS011;29105;57.764;40.952;2023-02-27T06:48:35;15.00;;;8.18;;
43509;SDS011;29105;57.764;40.952;2023-02-27T06:51:01;16.70;;;8.32;;
43509;SDS011;29105;57.764;40.952;2023-02-27T06:53:27;17.20;;;7.70;;
43509;SDS011;29105;57.764;40.952;2023-02-27T06:55:53;17.35;;;8.57;;
43509;SDS011;29105;57.764;40.952;2023-02-27T06:58:19;14.20;;;8.15;;
43509;SDS011;29105;57.764;40.952;2023-02-27T07:00:44;17.98;;;9.00;;
43509;SDS011;29105;57.764;40.952;2023-02-27T07:03:10;14.98;;;7.63;;
43509;SDS011;29105;57.764;40.952;2023-02-27T07:05:37;14.95;;;8.70;;
43509;SDS011;29105;57.764;40.952;2023-02-27T07:08:02;18.75;;;9.15;;
43509;SDS011;29105;57.764;40.952;2023-02-27T07:10:28;13.70;;;7.45;;
43509;SDS011;29105;57.764;40.952;2023-02-27T07:12:54;31.85;;;12.95;;
43509;SDS011;29105;57.764;40.952;2023-02-27T07:15:20;20.35;;;10.10;;
43509;SDS011;29105;57.764;40.952;2023-02-27T07:17:46;28.15;;;13.82;;
43509;SDS011;29105;57.764;40.952;2023-02-27T07:20:12;22.85;;;11.20;;
43509;SDS011;29105;57.764;40.952;2023-02-27T07:22:38;34.95;;;16.27;;
43509;SDS011;29105;57.764;40.952;2023-02-27T07:25:05;28.05;;;14.25;;
43509;SDS011;29105;57.764;40.952;2023-02-27T07:27:31;15.05;;;8.88;;
43509;SDS011;29105;57.764;40.952;2023-02-27T07:29:57;15.40;;;7.13;;
43509;SDS011;29105;57.764;40.952;2023-02-27T07:32:22;13.65;;;7.07;;
43509;SDS011;29105;57.764;40.952;2023-02-27T07:34:48;17.50;;;9.10;;
43509;SDS011;29105;57.764;40.952;2023-02-27T07:37:14;15.32;;;7.90;;
43509;SDS011;29105;57.764;40.952;2023-02-27T07:39:39;14.80;;;7.07;;
43509;SDS011;29105;57.764;40.952;2023-02-27T07:42:05;17.30;;;8.45;;
43509;SDS011;29105;57.764;40.952;2023-02-27T07:44:31;17.02;;;9.00;;
43509;SDS011;29105;57.764;40.952;2023-02-27T07:46:57;15.00;;;8.10;;
43509;SDS011;29105;57.764;40.952;2023-02-27T07:49:23;13.73;;;7.82;;
43509;SDS011;29105;57.764;40.952;2023-02-27T07:51:48;14.23;;;7.85;;
43509;SDS011;29105;57.764;40.952;2023-02-27T07:54:14;11.55;;;6.35;;
43509;SDS011;29105;57.764;40.952;2023-02-27T07:56:40;16.00;;;6.85;;
43509;SDS011;29105;57.764;40.952;2023-02-27T07:59:05;13.63;;;7.03;;
43509;SDS011;29105;57.764;40.952;2023-02-27T08:01:31;12.82;;;7.80;;
43509;SDS011;29105;57.764;40.952;2023-02-27T08:03:57;14.00;;;8.35;;
43509;SDS011;29105;57.764;40.952;2023-02-27T08:06:22;14.50;;;7.43;;
43509;SDS011;29105;57.764;40.952;2023-02-27T08:08:48;12.30;;;6.47;;
43509;SDS011;29105;57.764;40.952;2023-02-27T08:11:14;13.98;;;6.05;;
43509;SDS011;29105;57.764;40.952;2023-02-27T08:13:40;11.63;;;6.45;;
43509;SDS011;29105;57.764;40.952;2023-02-27T08:16:06;15.10;;;7.95;;
43509;SDS011;29105;57.764;40.952;2023-02-27T08:18:32;11.80;;;6.20;;
43509;SDS011;29105;57.764;40.952;2023-02-27T08:20:58;12.15;;;6.07;;
43509;SDS011;29105;57.764;40.952;2023-02-27T08:23:23;10.10;;;5.78;;
43509;SDS011;29105;57.764;40.952;2023-02-27T08:25:49;10.43;;;4.82;;
43509;SDS011;29105;57.764;40.952;2023-02-27T08:28:15;8.27;;;4.80;;
43509;SDS011;29105;57.764;40.952;2023-02-27T08:30:42;15.00;;;5.97;;
43509;SDS011;29105;57.764;40.952;2023-02-27T08:33:08;10.15;;;5.93;;
43509;SDS011;29105;57.764;40.952;2023-02-27T08:35:34;11.65;;;6.28;;
43509;SDS011;29105;57.764;40.952;2023-02-27T08:37:59;11.50;;;6.43;;
43509;SDS011;29105;57.764;40.952;2023-02-27T08:40:25;11.77;;;6.38;;
43509;SDS011;29105;57.764;40.952;2023-02-27T08:42:51;11.60;;;6.60;;
43509;SDS011;29105;57.764;40.952;2023-02-27T08:45:16;12.18;;;6.22;;
43509;SDS011;29105;57.764;40.952;2023-02-27T08:47:42;9.18;;;5.88;;
43509;SDS011;29105;57.764;40.952;2023-02-27T08:50:09;10.90;;;6.50;;
43509;SDS011;29105;57.764;40.952;2023-02-27T08:52:36;12.77;;;5.40;;
43509;SDS011;29105;57.764;40.952;2023-02-27T08:55:02;11.35;;;6.65;;
43509;SDS011;29105;57.764;40.952;2023-02-27T08:57:29;10.52;;;6.00;;
43509;SDS011;29105;57.764;40.952;2023-02-27T08:59:55;11.20;;;5.25;;
43509;SDS011;29105;57.764;40.952;2023-02-27T09:02:20;11.52;;;5.93;;
43509;SDS011;29105;57.764;40.952;2023-02-27T09:04:51;11.40;;;4.93;;
43509;SDS011;29105;57.764;40.952;2023-02-27T09:07:17;14.60;;;6.45;;
43509;SDS011;29105;57.764;40.952;2023-02-27T09:09:43;9.48;;;4.90;;
43509;SDS011;29105;57.764;40.952;2023-02-27T09:12:09;7.80;;;4.50;;
43509;SDS011;29105;57.764;40.952;2023-02-27T09:14:35;10.20;;;5.35;;
43509;SDS011;29105;57.764;40.952;2023-02-27T09:17:01;14.25;;;4.43;;
43509;SDS011;29105;57.764;40.952;2023-02-27T09:19:27;12.52;;;5.30;;
43509;SDS011;29105;57.764;40.952;2023-02-27T09:21:53;9.23;;;5.28;;
43509;SDS011;29105;57.764;40.952;2023-02-27T09:24:19;8.10;;;4.45;;
43509;SDS011;29105;57.764;40.952;2023-02-27T09:26:44;10.77;;;5.18;;
43509;SDS011;29105;57.764;40.952;2023-02-27T09:29:10;8.05;;;5.25;;
43509;SDS011;29105;57.764;40.952;2023-02-27T09:31:36;10.43;;;5.38;;
43509;SDS011;29105;57.764;40.952;2023-02-27T09:34:01;13.38;;;6.10;;
43509;SDS011;29105;57.764;40.952;2023-02-27T09:36:27;10.55;;;5.70;;
43509;SDS011;29105;57.764;40.952;2023-02-27T09:38:53;10.32;;;5.07;;
43509;SDS011;29105;57.764;40.952;2023-02-27T09:41:25;9.13;;;4.95;;
43509;SDS011;29105;57.764;40.952;2023-02-27T09:44:00;10.07;;;5.88;;
43509;SDS011;29105;57.764;40.952;2023-02-27T09:46:26;10.80;;;5.53;;
43509;SDS011;29105;57.764;40.952;2023-02-27T09:48:53;10.50;;;5.40;;
43509;SDS011;29105;57.764;40.952;2023-02-27T09:51:21;7.05;;;4.60;;
43509;SDS011;29105;57.764;40.952;2023-02-27T09:53:48;10.02;;;5.20;;
43509;SDS011;29105;57.764;40.952;2023-02-27T10:01:19;10.52;;;5.18;;
43509;SDS011;29105;57.764;40.952;2023-02-27T10:12:08;8.23;;;5.18;;
43509;SDS011;29105;57.764;40.952;2023-02-27T10:14:49;9.52;;;4.90;;
43509;SDS011;29105;57.764;40.952;2023-02-27T10:19:53;6.15;;;3.75;;
43509;SDS011;29105;57.764;40.952;2023-02-27T10:22:26;6.22;;;4.15;;
43509;SDS011;29105;57.764;40.952;2023-02-27T10:25:02;6.80;;;3.75;;
43509;SDS011;29105;57.764;40.952;2023-02-27T10:27:31;8.68;;;4.53;;
43509;SDS011;29105;57.764;40.952;2023-02-27T10:29:59;7.28;;;4.22;;
43509;SDS011;29105;57.764;40.952;2023-02-27T10:35:20;7.80;;;3.42;;
43509;SDS011;29105;57.764;40.952;2023-02-27T10:37:51;8.43;;;3.58;;
43509;SDS011;29105;57.764;40.952;2023-02-27T10:40:20;7.18;;;3.47;;
43509;SDS011;29105;57.764;40.952;2023-02-27T10:42:49;7.07;;;3.72;;
43509;SDS011;29105;57.764;40.952;2023-02-27T10:45:16;7.00;;;3.97;;
43509;SDS011;29105;57.764;40.952;2023-02-27T10:47:42;7.65;;;3.33;;
43509;SDS011;29105;57.764;40.952;2023-02-27T10:50:22;5.97;;;3.40;;
43509;SDS011;29105;57.764;40.952;2023-02-27T10:52:59;7.50;;;3.85;;
43509;SDS011;29105;57.764;40.952;2023-02-27T10:55:28;4.40;;;2.33;;
43509;SDS011;29105;57.764;40.952;2023-02-27T10:57:56;5.50;;;2.80;;
43509;SDS011;29105;57.764;40.952;2023-02-27T11:00:44;7.13;;;3.70;;
43509;SDS011;29105;57.764;40.952;2023-02-27T11:03:19;7.00;;;3.60;;
43509;SDS011;29105;57.764;40.952;2023-02-27T11:11:35;5.97;;;3.33;;
43509;SDS011;29105;57.764;40.952;2023-02-27T11:16:48;5.53;;;3.58;;
43509;SDS011;29105;57.764;40.952;2023-02-27T11:19:34;10.10;;;4.07;;
43509;SDS011;29105;57.764;40.952;2023-02-27T11:24:41;5.57;;;2.40;;
43509;SDS011;29105;57.764;40.952;2023-02-27T11:27:21;7.72;;;3.22;;
43509;SDS011;29105;57.764;40.952;2023-02-27T11:32:34;6.18;;;3.65;;
43509;SDS011;29105;57.764;40.952;2023-02-27T11:35:22;6.45;;;3.22;;
43509;SDS011;29105;57.764;40.952;2023-02-27T11:40:23;7.38;;;3.35;;
43509;SDS011;29105;57.764;40.952;2023-02-27T11:42:55;7.65;;;3.45;;
43509;SDS011;29105;57.764;40.952;2023-02-27T11:48:00;6.47;;;3.25;;
43509;SDS011;29105;57.764;40.952;2023-02-27T11:50:47;5.10;;;2.72;;
43509;SDS011;29105;57.764;40.952;2023-02-27T11:56:03;8.02;;;3.38;;
43509;SDS011;29105;57.764;40.952;2023-02-27T11:58:34;5.32;;;3.13;;
43509;SDS011;29105;57.764;40.952;2023-02-27T12:01:07;5.70;;;2.88;;
43509;SDS011;29105;57.764;40.952;2023-02-27T12:03:45;5.88;;;2.90;;
43509;SDS011;29105;57.764;40.952;2023-02-27T12:06:18;5.68;;;3.10;;
43509;SDS011;29105;57.764;40.952;2023-02-27T12:11:24;7.10;;;3.78;;
43509;SDS011;29105;57.764;40.952;2023-02-27T12:14:15;11.90;;;5.47;;
43509;SDS011;29105;57.764;40.952;2023-02-27T12:16:50;13.82;;;5.95;;
43509;SDS011;29105;57.764;40.952;2023-02-27T12:21:53;6.43;;;3.65;;
43509;SDS011;29105;57.764;40.952;2023-02-27T12:24:30;8.40;;;4.05;;
43509;SDS011;29105;57.764;40.952;2023-02-27T12:27:06;7.95;;;2.83;;
43509;SDS011;29105;57.764;40.952;2023-02-27T12:29:48;6.70;;;3.35;;
43509;SDS011;29105;57.764;40.952;2023-02-27T12:37:41;5.38;;;2.25;;
43509;SDS011;29105;57.764;40.952;2023-02-27T12:40:12;4.82;;;3.00;;
43509;SDS011;29105;57.764;40.952;2023-02-27T12:59:34;4.75;;;2.25;;
43509;SDS011;29105;57.764;40.952;2023-02-27T13:04:43;6.75;;;3.08;;
43509;SDS011;29105;57.764;40.952;2023-02-27T13:07:21;6.07;;;3.22;;
43509;SDS011;29105;57.764;40.952;2023-02-27T13:13:19;5.78;;;2.58;;
43509;SDS011;29105;57.764;40.952;2023-02-27T13:15:22;6.07;;;3.30;;
43509;SDS011;29105;57.764;40.952;2023-02-27T13:18:00;6.45;;;3.22;;
43509;SDS011;29105;57.764;40.952;2023-02-27T13:20:43;6.20;;;3.50;;
43509;SDS011;29105;57.764;40.952;2023-02-27T13:25:42;4.60;;;2.50;;
43509;SDS011;29105;57.764;40.952;2023-02-27T13:28:12;3.75;;;1.77;;
43509;SDS011;29105;57.764;40.952;2023-02-27T13:30:49;5.47;;;2.45;;
43509;SDS011;29105;57.764;40.952;2023-02-27T13:33:28;5.05;;;2.25;;
43509;SDS011;29105;57.764;40.952;2023-02-27T13:38:42;3.83;;;1.75;;
43509;SDS011;29105;57.764;40.952;2023-02-27T13:46:30;2.53;;;1.30;;
43509;SDS011;29105;57.764;40.952;2023-02-27T13:56:43;2.83;;;1.23;;
43509;SDS011;29105;57.764;40.952;2023-02-27T14:02:03;2.95;;;1.35;;
43509;SDS011;29105;57.764;40.952;2023-02-27T14:04:50;4.55;;;2.13;;
43509;SDS011;29105;57.764;40.952;2023-02-27T14:07:25;3.92;;;2.25;;
43509;SDS011;29105;57.764;40.952;2023-02-27T14:09:59;4.97;;;2.63;;
43509;SDS011;29105;57.764;40.952;2023-02-27T14:12:34;4.85;;;2.20;;
43509;SDS011;29105;57.764;40.952;2023-02-27T14:15:06;5.10;;;2.63;;
43509;SDS011;29105;57.764;40.952;2023-02-27T14:17:51;8.40;;;4.97;;
43509;SDS011;29105;57.764;40.952;2023-02-27T14:25:34;5.32;;;2.15;;
43509;SDS011;29105;57.764;40.952;2023-02-27T14:30:59;7.40;;;2.35;;
43509;SDS011;29105;57.764;40.952;2023-02-27T14:33:37;4.60;;;3.03;;
43509;SDS011;29105;57.764;40.952;2023-02-27T14:36:41;3.17;;;2.13;;
43509;SDS011;29105;57.764;40.952;2023-02-27T14:39:38;5.72;;;3.17;;
43509;SDS011;29105;57.764;40.952;2023-02-27T14:44:50;4.18;;;1.90;;
43509;SDS011;29105;57.764;40.952;2023-02-27T14:47:23;5.72;;;2.97;;
43509;SDS011;29105;57.764;40.952;2023-02-27T14:49:54;4.93;;;2.40;;
43509;SDS011;29105;57.764;40.952;2023-02-27T14:54:48;5.20;;;2.92;;
43509;SDS011;29105;57.764;40.952;2023-02-27T14:57:21;5.15;;;3.03;;
43509;SDS011;29105;57.764;40.952;2023-02-27T14:59:49;5.32;;;2.75;;
43509;SDS011;29105;57.764;40.952;2023-02-27T15:04:46;6.13;;;3.38;;
43509;SDS011;29105;57.764;40.952;2023-02-27T15:07:15;8.65;;;3.85;;
43509;SDS011;29105;57.764;40.952;2023-02-27T15:10:03;7.88;;;4.55;;
43509;SDS011;29105;57.764;40.952;2023-02-27T15:12:35;7.25;;;3.33;;
43509;SDS011;29105;57.764;40.952;2023-02-27T15:15:02;6.22;;;3.05;;
43509;SDS011;29105;57.764;40.952;2023-02-27T15:20:03;5.15;;;3.00;;
43509;SDS011;29105;57.764;40.952;2023-02-27T15:22:40;4.55;;;2.70;;
43509;SDS011;29105;57.764;40.952;2023-02-27T15:25:24;7.05;;;3.22;;
43509;SDS011;29105;57.764;40.952;2023-02-27T15:27:59;6.97;;;2.25;;
43509;SDS011;29105;57.764;40.952;2023-02-27T15:30:27;7.22;;;3.28;;
43509;SDS011;29105;57.764;40.952;2023-02-27T15:32:53;4.53;;;2.42;;
43509;SDS011;29105;57.764;40.952;2023-02-27T15:35:21;4.30;;;2.42;;
43509;SDS011;29105;57.764;40.952;2023-02-27T15:37:50;7.13;;;2.58;;
43509;SDS011;29105;57.764;40.952;2023-02-27T15:40:19;6.45;;;3.08;;
43509;SDS011;29105;57.764;40.952;2023-02-27T15:42:56;6.85;;;3.75;;
43509;SDS011;29105;57.764;40.952;2023-02-27T15:45:32;12.98;;;5.80;;
43509;SDS011;29105;57.764;40.952;2023-02-27T15:47:59;7.03;;;3.35;;
43509;SDS011;29105;57.764;40.952;2023-02-27T15:53:01;5.40;;;2.22;;
43509;SDS011;29105;57.764;40.952;2023-02-27T15:55:30;8.25;;;4.30;;
43509;SDS011;29105;57.764;40.952;2023-02-27T15:57:58;5.75;;;2.67;;
43509;SDS011;29105;57.764;40.952;2023-02-27T16:00:24;7.25;;;3.13;;
43509;SDS011;29105;57.764;40.952;2023-02-27T16:02:53;9.10;;;3.25;;
43509;SDS011;29105;57.764;40.952;2023-02-27T16:05:25;8.48;;;3.85;;
43509;SDS011;29105;57.764;40.952;2023-02-27T16:07:53;7.43;;;4.50;;
43509;SDS011;29105;57.764;40.952;2023-02-27T16:10:20;11.40;;;5.78;;
43509;SDS011;29105;57.764;40.952;2023-02-27T16:12:48;12.00;;;6.25;;
43509;SDS011;29105;57.764;40.952;2023-02-27T16:17:53;12.85;;;5.15;;
43509;SDS011;29105;57.764;40.952;2023-02-27T16:20:29;9.65;;;4.65;;
43509;SDS011;29105;57.764;40.952;2023-02-27T16:23:01;14.13;;;5.75;;
43509;SDS011;29105;57.764;40.952;2023-02-27T16:29:00;7.95;;;2.97;;
43509;SDS011;29105;57.764;40.952;2023-02-27T16:31:36;8.73;;;3.90;;
43509;SDS011;29105;57.764;40.952;2023-02-27T16:34:13;3.22;;;1.90;;
43509;SDS011;29105;57.764;40.952;2023-02-27T16:36:41;4.50;;;2.22;;
43509;SDS011;29105;57.764;40.952;2023-02-27T16:39:11;5.85;;;2.78;;
43509;SDS011;29105;57.764;40.952;2023-02-27T16:41:36;4.68;;;2.17;;
43509;SDS011;29105;57.764;40.952;2023-02-27T16:44:03;7.70;;;3.38;;
43509;SDS011;29105;57.764;40.952;2023-02-27T16:46:29;7.10;;;3.72;;
43509;SDS011;29105;57.764;40.952;2023-02-27T16:48:56;7.93;;;4.18;;
43509;SDS011;29105;57.764;40.952;2023-02-27T16:51:30;7.07;;;3.20;;
43509;SDS011;29105;57.764;40.952;2023-02-27T16:53:57;4.63;;;2.63;;
43509;SDS011;29105;57.764;40.952;2023-02-27T16:56:24;7.32;;;3.50;;
43509;SDS011;29105;57.764;40.952;2023-02-27T16:58:51;5.85;;;2.75;;
43509;SDS011;29105;57.764;40.952;2023-02-27T17:01:17;6.57;;;3.60;;
43509;SDS011;29105;57.764;40.952;2023-02-27T17:03:44;6.63;;;3.03;;
43509;SDS011;29105;57.764;40.952;2023-02-27T17:06:11;6.15;;;3.53;;
43509;SDS011;29105;57.764;40.952;2023-02-27T17:08:38;4.43;;;2.65;;
43509;SDS011;29105;57.764;40.952;2023-02-27T17:11:05;4.88;;;3.17;;
43509;SDS011;29105;57.764;40.952;2023-02-27T17:13:31;7.68;;;3.42;;
43509;SDS011;29105;57.764;40.952;2023-02-27T17:15:58;6.53;;;3.22;;
43509;SDS011;29105;57.764;40.952;2023-02-27T17:18:24;7.45;;;3.83;;
43509;SDS011;29105;57.764;40.952;2023-02-27T17:20:51;6.10;;;3.28;;
43509;SDS011;29105;57.764;40.952;2023-02-27T17:23:17;6.32;;;3.15;;
43509;SDS011;29105;57.764;40.952;2023-02-27T17:25:43;7.88;;;3.35;;
43509;SDS011;29105;57.764;40.952;2023-02-27T17:28:09;6.65;;;3.45;;
43509;SDS011;29105;57.764;40.952;2023-02-27T17:30:35;6.55;;;2.95;;
43509;SDS011;29105;57.764;40.952;2023-02-27T17:33:01;9.23;;;4.13;;
43509;SDS011;29105;57.764;40.952;2023-02-27T17:35:27;4.38;;;2.58;;
43509;SDS011;29105;57.764;40.952;2023-02-27T17:37:54;9.52;;;4.85;;
43509;SDS011;29105;57.764;40.952;2023-02-27T17:40:20;9.55;;;3.63;;
43509;SDS011;29105;57.764;40.952;2023-02-27T17:42:46;7.80;;;3.60;;
43509;SDS011;29105;57.764;40.952;2023-02-27T17:45:12;5.75;;;2.92;;
43509;SDS011;29105;57.764;40.952;2023-02-27T17:47:38;7.35;;;3.65;;
43509;SDS011;29105;57.764;40.952;2023-02-27T17:50:04;5.68;;;2.20;;
43509;SDS011;29105;57.764;40.952;2023-02-27T17:52:30;5.10;;;2.33;;
43509;SDS011;29105;57.764;40.952;2023-02-27T17:54:56;1.92;;;1.48;;
43509;SDS011;29105;57.764;40.952;2023-02-27T17:57:23;8.70;;;3.97;;
43509;SDS011;29105;57.764;40.952;2023-02-27T17:59:48;6.88;;;2.67;;
43509;SDS011;29105;57.764;40.952;2023-02-27T18:02:14;6.65;;;2.17;;
43509;SDS011;29105;57.764;40.952;2023-02-27T18:04:40;4.28;;;1.95;;